DLA8RT LIMJ-EDDM
Flight info
| Callsign | DLA8RT |
|---|---|
| Flight time | 0h 54m |
| Altitude | 36000 |
| Route | ITCAP DCT MONEB DCT OSKOR DCT NESTI DCT TAGIP DCT GUNGO DCT IVKAL T102 NINUR T101 BETOS BETOS1B |
| Aircraft | E195/M-SDE3GILORVW/S |
Departure
| Time | 2026-05-07 16:00 |
|---|---|
| Airport | Genoa Cristoforo Colombo Airport (LIMJ) |
Arrival
| Time | 2026-05-07 16:54 |
|---|---|
| Airport | Munich Airport (EDDM) |
| Time | Latitude | Longitude | Altitude | Speed | Heading |
|---|---|---|---|---|---|
| 2026-05-07 15:40 | 44.41352 | 8.85292 | 19 ft | 0 kts | 15° |
| 2026-05-07 15:54 | 44.41356 | 8.85290 | 19 ft | 1 kts | 354° |
| 2026-05-07 15:54 | 44.41359 | 8.85279 | 19 ft | 1 kts | 291° |
| 2026-05-07 15:55 | 44.41350 | 8.85263 | 19 ft | 3 kts | 224° |
| 2026-05-07 15:55 | 44.41318 | 8.85252 | 19 ft | 6 kts | 191° |
| 2026-05-07 15:55 | 44.41273 | 8.85265 | 19 ft | 8 kts | 161° |
| 2026-05-07 15:55 | 44.41221 | 8.85279 | 19 ft | 8 kts | 194° |
| 2026-05-07 15:56 | 44.41160 | 8.85255 | 19 ft | 10 kts | 195° |
| 2026-05-07 15:56 | 44.41090 | 8.85226 | 18 ft | 8 kts | 205° |
| 2026-05-07 15:56 | 44.41038 | 8.85168 | 18 ft | 10 kts | 194° |
| 2026-05-07 15:56 | 44.40995 | 8.85232 | 18 ft | 10 kts | 114° |
| 2026-05-07 15:57 | 44.40971 | 8.85329 | 17 ft | 11 kts | 107° |
| 2026-05-07 15:57 | 44.40949 | 8.85444 | 18 ft | 14 kts | 105° |
| 2026-05-07 15:57 | 44.40922 | 8.85584 | 21 ft | 15 kts | 105° |
| 2026-05-07 15:57 | 44.40893 | 8.85731 | 21 ft | 16 kts | 105° |
| 2026-05-07 15:58 | 44.40864 | 8.85889 | 20 ft | 17 kts | 95° |
| 2026-05-07 15:58 | 44.40881 | 8.86048 | 21 ft | 16 kts | 109° |
| 2026-05-07 15:58 | 44.40834 | 8.86021 | 21 ft | 10 kts | 284° |
| 2026-05-07 15:58 | 44.40852 | 8.85921 | 20 ft | 11 kts | 283° |
| 2026-05-07 15:59 | 44.40878 | 8.85809 | 21 ft | 13 kts | 285° |
| 2026-05-07 15:59 | 44.40958 | 8.85397 | 20 ft | 80 kts | 285° |
| 2026-05-07 15:59 | 44.41163 | 8.84337 | 20 ft | 144 kts | 285° |
| 2026-05-07 15:59 | 44.41496 | 8.82772 | 214 ft | 185 kts | 289° |
| 2026-05-07 16:00 | 44.41968 | 8.81139 | 1240 ft | 174 kts | 295° |
| 2026-05-07 16:00 | 44.42387 | 8.79519 | 1810 ft | 191 kts | 271° |
| 2026-05-07 16:00 | 44.41911 | 8.77780 | 2320 ft | 204 kts | 224° |
| 2026-05-07 16:00 | 44.40631 | 8.76823 | 2873 ft | 217 kts | 198° |
| 2026-05-07 16:01 | 44.39132 | 8.76288 | 3520 ft | 227 kts | 188° |
| 2026-05-07 16:01 | 44.37537 | 8.76310 | 4258 ft | 231 kts | 174° |
| 2026-05-07 16:01 | 44.35933 | 8.76608 | 5015 ft | 234 kts | 173° |
| 2026-05-07 16:01 | 44.34309 | 8.76855 | 5753 ft | 236 kts | 175° |
| 2026-05-07 16:02 | 44.32657 | 8.77074 | 6474 ft | 242 kts | 175° |
| 2026-05-07 16:02 | 44.30891 | 8.77297 | 6811 ft | 270 kts | 175° |
| 2026-05-07 16:02 | 44.28997 | 8.77579 | 7577 ft | 278 kts | 175° |
| 2026-05-07 16:02 | 44.27056 | 8.77846 | 8431 ft | 282 kts | 175° |
| 2026-05-07 16:03 | 44.25089 | 8.78135 | 9330 ft | 286 kts | 174° |
| 2026-05-07 16:03 | 44.23100 | 8.78442 | 10217 ft | 291 kts | 174° |
| 2026-05-07 16:03 | 44.21025 | 8.78789 | 10759 ft | 307 kts | 173° |
| 2026-05-07 16:03 | 44.18876 | 8.79188 | 11441 ft | 315 kts | 174° |
| 2026-05-07 16:04 | 44.16679 | 8.79060 | 12204 ft | 319 kts | 195° |
| 2026-05-07 16:04 | 44.14695 | 8.77697 | 13011 ft | 321 kts | 218° |
| 2026-05-07 16:04 | 44.13188 | 8.75412 | 13847 ft | 323 kts | 239° |
| 2026-05-07 16:04 | 44.12378 | 8.72495 | 14694 ft | 326 kts | 260° |
| 2026-05-07 16:05 | 44.12389 | 8.69335 | 15518 ft | 330 kts | 281° |
| 2026-05-07 16:05 | 44.13185 | 8.66329 | 16311 ft | 334 kts | 298° |
| 2026-05-07 16:05 | 44.14663 | 8.63819 | 17034 ft | 341 kts | 321° |
| 2026-05-07 16:05 | 44.16787 | 8.62328 | 17766 ft | 347 kts | 343° |
| 2026-05-07 16:06 | 44.19169 | 8.61996 | 18465 ft | 354 kts | 4° |
| 2026-05-07 16:06 | 44.21555 | 8.62908 | 19138 ft | 361 kts | 25° |
| 2026-05-07 16:06 | 44.23579 | 8.65014 | 19780 ft | 368 kts | 47° |
| 2026-05-07 16:06 | 44.25166 | 8.67850 | 20416 ft | 373 kts | 54° |
| 2026-05-07 16:07 | 44.26553 | 8.70936 | 21017 ft | 378 kts | 59° |
| 2026-05-07 16:07 | 44.27909 | 8.74099 | 21577 ft | 382 kts | 58° |
| 2026-05-07 16:07 | 44.29285 | 8.77293 | 22124 ft | 386 kts | 58° |
| 2026-05-07 16:07 | 44.30673 | 8.80529 | 22672 ft | 390 kts | 58° |
| 2026-05-07 16:08 | 44.32070 | 8.83802 | 23202 ft | 395 kts | 58° |
| 2026-05-07 16:08 | 44.33481 | 8.87108 | 23736 ft | 398 kts | 58° |
| 2026-05-07 16:08 | 44.34903 | 8.90455 | 24269 ft | 402 kts | 58° |
| 2026-05-07 16:08 | 44.36338 | 8.93833 | 24806 ft | 406 kts | 58° |
| 2026-05-07 16:09 | 44.37785 | 8.97247 | 25323 ft | 410 kts | 58° |
| 2026-05-07 16:09 | 44.39245 | 9.00696 | 25831 ft | 414 kts | 58° |
| 2026-05-07 16:09 | 44.40715 | 9.04175 | 26308 ft | 418 kts | 58° |
| 2026-05-07 16:09 | 44.42314 | 9.07579 | 26732 ft | 420 kts | 48° |
| 2026-05-07 16:10 | 44.44544 | 9.10196 | 27145 ft | 420 kts | 30° |
| 2026-05-07 16:10 | 44.47070 | 9.12249 | 27607 ft | 422 kts | 27° |
| 2026-05-07 16:10 | 44.49615 | 9.14324 | 28015 ft | 425 kts | 28° |
| 2026-05-07 16:10 | 44.52180 | 9.16423 | 28411 ft | 428 kts | 28° |
| 2026-05-07 16:11 | 44.54757 | 9.18541 | 28810 ft | 431 kts | 28° |
| 2026-05-07 16:11 | 44.57321 | 9.20648 | 29173 ft | 434 kts | 28° |
| 2026-05-07 16:11 | 44.59935 | 9.22796 | 29527 ft | 437 kts | 27° |
| 2026-05-07 16:11 | 44.62569 | 9.24958 | 29890 ft | 439 kts | 28° |
| 2026-05-07 16:12 | 44.65211 | 9.27144 | 30226 ft | 442 kts | 28° |
| 2026-05-07 16:12 | 44.67862 | 9.29349 | 30587 ft | 444 kts | 28° |
| 2026-05-07 16:12 | 44.70536 | 9.31569 | 30886 ft | 447 kts | 28° |
| 2026-05-07 16:12 | 44.73219 | 9.33807 | 31213 ft | 449 kts | 28° |
| 2026-05-07 16:13 | 44.75913 | 9.36050 | 31502 ft | 451 kts | 28° |
| 2026-05-07 16:13 | 44.78620 | 9.38311 | 31774 ft | 454 kts | 28° |
| 2026-05-07 16:13 | 44.81339 | 9.40583 | 32051 ft | 455 kts | 28° |
| 2026-05-07 16:13 | 44.84065 | 9.42863 | 32345 ft | 456 kts | 28° |
| 2026-05-07 16:14 | 44.86791 | 9.45146 | 32700 ft | 455 kts | 28° |
| 2026-05-07 16:14 | 44.89509 | 9.47426 | 33031 ft | 454 kts | 28° |
| 2026-05-07 16:14 | 44.92219 | 9.49704 | 33349 ft | 453 kts | 28° |
| 2026-05-07 16:14 | 44.94929 | 9.51981 | 33631 ft | 453 kts | 28° |
| 2026-05-07 16:15 | 44.97635 | 9.54259 | 33920 ft | 453 kts | 28° |
| 2026-05-07 16:15 | 45.00343 | 9.56538 | 34201 ft | 452 kts | 28° |
| 2026-05-07 16:15 | 45.03044 | 9.58817 | 34444 ft | 452 kts | 28° |
| 2026-05-07 16:15 | 45.05743 | 9.61095 | 34682 ft | 452 kts | 28° |
| 2026-05-07 16:16 | 45.08409 | 9.63348 | 34907 ft | 452 kts | 28° |
| 2026-05-07 16:16 | 45.11108 | 9.65632 | 35122 ft | 452 kts | 28° |
| 2026-05-07 16:16 | 45.13807 | 9.67917 | 35333 ft | 452 kts | 28° |
| 2026-05-07 16:16 | 45.16507 | 9.70207 | 35540 ft | 452 kts | 28° |
| 2026-05-07 16:17 | 45.19207 | 9.72499 | 35745 ft | 452 kts | 28° |
| 2026-05-07 16:17 | 45.21901 | 9.74789 | 36028 ft | 449 kts | 28° |
| 2026-05-07 16:17 | 45.24597 | 9.77083 | 36032 ft | 455 kts | 28° |
| 2026-05-07 16:18 | 45.30093 | 9.81764 | 36058 ft | 465 kts | 28° |
| 2026-05-07 16:18 | 45.35697 | 9.86552 | 36012 ft | 474 kts | 28° |
| 2026-05-07 16:19 | 45.41348 | 9.91391 | 35954 ft | 473 kts | 28° |
| 2026-05-07 16:19 | 45.46952 | 9.96202 | 35955 ft | 474 kts | 28° |
| 2026-05-07 16:20 | 45.52599 | 10.01059 | 35954 ft | 474 kts | 28° |
| 2026-05-07 16:20 | 45.58250 | 10.05933 | 35952 ft | 474 kts | 29° |
| 2026-05-07 16:21 | 45.63870 | 10.10885 | 35943 ft | 476 kts | 35° |
| 2026-05-07 16:21 | 45.66228 | 10.14206 | 35988 ft | 479 kts | 51° |
| 2026-05-07 16:21 | 45.68175 | 10.18085 | 35993 ft | 481 kts | 54° |
| 2026-05-07 16:22 | 45.72029 | 10.25909 | 35960 ft | 480 kts | 53° |
| 2026-05-07 16:22 | 45.75892 | 10.33713 | 35960 ft | 480 kts | 53° |
| 2026-05-07 16:23 | 45.79757 | 10.41519 | 35960 ft | 480 kts | 53° |
| 2026-05-07 16:23 | 45.83627 | 10.49345 | 35983 ft | 481 kts | 53° |
| 2026-05-07 16:24 | 45.87502 | 10.57199 | 35991 ft | 483 kts | 53° |
| 2026-05-07 16:24 | 45.91373 | 10.65061 | 36025 ft | 483 kts | 53° |
| 2026-05-07 16:24 | 45.93496 | 10.68771 | 36009 ft | 480 kts | 40° |
| 2026-05-07 16:25 | 45.96228 | 10.71453 | 36067 ft | 475 kts | 26° |
| 2026-05-07 16:25 | 46.02063 | 10.75811 | 36023 ft | 476 kts | 25° |
| 2026-05-07 16:26 | 46.07907 | 10.80237 | 36034 ft | 473 kts | 26° |
| 2026-05-07 16:26 | 46.13738 | 10.84687 | 36038 ft | 474 kts | 26° |
| 2026-05-07 16:27 | 46.19563 | 10.89155 | 36035 ft | 474 kts | 26° |
| 2026-05-07 16:27 | 46.25392 | 10.93636 | 36026 ft | 474 kts | 26° |
| 2026-05-07 16:28 | 46.31217 | 10.98129 | 36018 ft | 474 kts | 26° |
| 2026-05-07 16:28 | 46.37042 | 11.02637 | 35984 ft | 475 kts | 26° |
| 2026-05-07 16:29 | 46.43071 | 11.06167 | 35993 ft | 468 kts | 3° |
| 2026-05-07 16:29 | 46.49532 | 11.05893 | 35993 ft | 466 kts | 354° |
| 2026-05-07 16:30 | 46.55985 | 11.05395 | 35955 ft | 464 kts | 354° |
| 2026-05-07 16:30 | 46.62431 | 11.04911 | 35967 ft | 464 kts | 354° |
| 2026-05-07 16:31 | 46.68878 | 11.04429 | 35963 ft | 464 kts | 354° |
| 2026-05-07 16:31 | 46.75329 | 11.03948 | 35959 ft | 464 kts | 354° |
| 2026-05-07 16:32 | 46.81772 | 11.03371 | 36004 ft | 463 kts | 350° |
| 2026-05-07 16:32 | 46.88159 | 11.02089 | 35978 ft | 464 kts | 350° |
| 2026-05-07 16:33 | 46.94560 | 11.00972 | 35995 ft | 465 kts | 357° |
| 2026-05-07 16:33 | 47.01034 | 11.01796 | 36000 ft | 469 kts | 4° |
| 2026-05-07 16:34 | 47.07511 | 11.02818 | 35978 ft | 467 kts | 4° |
| 2026-05-07 16:34 | 47.13933 | 11.03825 | 35987 ft | 467 kts | 4° |
| 2026-05-07 16:35 | 47.20410 | 11.04838 | 35985 ft | 468 kts | 4° |
| 2026-05-07 16:35 | 47.26882 | 11.05852 | 35987 ft | 467 kts | 4° |
| 2026-05-07 16:36 | 47.33352 | 11.06865 | 36002 ft | 468 kts | 4° |
| 2026-05-07 16:36 | 47.39804 | 11.07883 | 35497 ft | 458 kts | 4° |
| 2026-05-07 16:36 | 47.42927 | 11.08377 | 35100 ft | 448 kts | 4° |
| 2026-05-07 16:37 | 47.46014 | 11.08863 | 34516 ft | 443 kts | 4° |
| 2026-05-07 16:37 | 47.49055 | 11.09345 | 33975 ft | 437 kts | 4° |
| 2026-05-07 16:37 | 47.52048 | 11.09818 | 33529 ft | 429 kts | 4° |
| 2026-05-07 16:37 | 47.54993 | 11.10314 | 32976 ft | 424 kts | 8° |
| 2026-05-07 16:38 | 47.57760 | 11.11408 | 32595 ft | 418 kts | 20° |
| 2026-05-07 16:38 | 47.60396 | 11.13195 | 31970 ft | 416 kts | 25° |
| 2026-05-07 16:38 | 47.62978 | 11.15083 | 31444 ft | 412 kts | 24° |
| 2026-05-07 16:38 | 47.65574 | 11.16956 | 30296 ft | 422 kts | 24° |
| 2026-05-07 16:39 | 47.68251 | 11.18899 | 29061 ft | 433 kts | 24° |
| 2026-05-07 16:39 | 47.70992 | 11.20876 | 27779 ft | 442 kts | 25° |
| 2026-05-07 16:39 | 47.73763 | 11.22873 | 26413 ft | 442 kts | 25° |
| 2026-05-07 16:39 | 47.76524 | 11.24856 | 24976 ft | 437 kts | 25° |
| 2026-05-07 16:40 | 47.79241 | 11.26804 | 23485 ft | 430 kts | 25° |
| 2026-05-07 16:40 | 47.81854 | 11.28668 | 23016 ft | 410 kts | 24° |
| 2026-05-07 16:40 | 47.84396 | 11.30482 | 22468 ft | 402 kts | 24° |
| 2026-05-07 16:40 | 47.86889 | 11.32258 | 21961 ft | 393 kts | 24° |
| 2026-05-07 16:41 | 47.89436 | 11.33551 | 21394 ft | 384 kts | 7° |
| 2026-05-07 16:41 | 47.92059 | 11.33843 | 20959 ft | 373 kts | 0° |
| 2026-05-07 16:41 | 47.94637 | 11.34007 | 20441 ft | 369 kts | 1° |
| 2026-05-07 16:41 | 47.97181 | 11.34197 | 19976 ft | 364 kts | 1° |
| 2026-05-07 16:42 | 47.98860 | 11.34322 | 19654 ft | 363 kts | 1° |
| 2026-05-07 16:42 | 48.01380 | 11.34522 | 19183 ft | 362 kts | 1° |
| 2026-05-07 16:42 | 48.03877 | 11.34971 | 18398 ft | 368 kts | 14° |
| 2026-05-07 16:42 | 48.06184 | 11.36750 | 17254 ft | 382 kts | 38° |
| 2026-05-07 16:43 | 48.07895 | 11.39825 | 16082 ft | 392 kts | 62° |
| 2026-05-07 16:43 | 48.08635 | 11.43707 | 15536 ft | 384 kts | 85° |
| 2026-05-07 16:43 | 48.08702 | 11.47623 | 15153 ft | 370 kts | 91° |
| 2026-05-07 16:43 | 48.08622 | 11.51410 | 14813 ft | 358 kts | 92° |
| 2026-05-07 16:44 | 48.08527 | 11.55078 | 14491 ft | 348 kts | 92° |
| 2026-05-07 16:44 | 48.08545 | 11.58658 | 14180 ft | 342 kts | 86° |
| 2026-05-07 16:44 | 48.08874 | 11.62153 | 13809 ft | 337 kts | 77° |
| 2026-05-07 16:44 | 48.09579 | 11.65446 | 13411 ft | 330 kts | 66° |
| 2026-05-07 16:45 | 48.10750 | 11.68373 | 12989 ft | 325 kts | 52° |
| 2026-05-07 16:45 | 48.12121 | 11.71028 | 12547 ft | 321 kts | 51° |
| 2026-05-07 16:45 | 48.13505 | 11.73630 | 12118 ft | 317 kts | 50° |
| 2026-05-07 16:45 | 48.14915 | 11.76149 | 11695 ft | 314 kts | 49° |
| 2026-05-07 16:46 | 48.16327 | 11.78612 | 11280 ft | 310 kts | 48° |
| 2026-05-07 16:46 | 48.17742 | 11.81032 | 10867 ft | 307 kts | 48° |
| 2026-05-07 16:46 | 48.19204 | 11.83374 | 10299 ft | 309 kts | 42° |
| 2026-05-07 16:46 | 48.20740 | 11.85478 | 9929 ft | 297 kts | 42° |
| 2026-05-07 16:47 | 48.22242 | 11.87579 | 9582 ft | 294 kts | 42° |
| 2026-05-07 16:47 | 48.23738 | 11.89666 | 9204 ft | 292 kts | 42° |
| 2026-05-07 16:47 | 48.25200 | 11.91716 | 8822 ft | 282 kts | 42° |
| 2026-05-07 16:47 | 48.26610 | 11.93694 | 8487 ft | 273 kts | 42° |
| 2026-05-07 16:48 | 48.27860 | 11.95773 | 8155 ft | 265 kts | 53° |
| 2026-05-07 16:48 | 48.28809 | 11.98087 | 7841 ft | 257 kts | 59° |
| 2026-05-07 16:48 | 48.29698 | 12.00408 | 7208 ft | 259 kts | 59° |
| 2026-05-07 16:48 | 48.30612 | 12.02777 | 6459 ft | 263 kts | 59° |
| 2026-05-07 16:49 | 48.31509 | 12.05107 | 6147 ft | 251 kts | 58° |
| 2026-05-07 16:49 | 48.32394 | 12.07274 | 5892 ft | 236 kts | 57° |
| 2026-05-07 16:49 | 48.33358 | 12.09140 | 5706 ft | 218 kts | 35° |
| 2026-05-07 16:49 | 48.34688 | 12.09873 | 5552 ft | 198 kts | 355° |
| 2026-05-07 16:50 | 48.35906 | 12.09151 | 5533 ft | 189 kts | 314° |
| 2026-05-07 16:50 | 48.36489 | 12.07496 | 5915 ft | 169 kts | 276° |
| 2026-05-07 16:50 | 48.36394 | 12.05849 | 6722 ft | 152 kts | 258° |
| 2026-05-07 16:50 | 48.36247 | 12.04353 | 7313 ft | 142 kts | 266° |
| 2026-05-07 16:51 | 48.36187 | 12.02736 | 7268 ft | 172 kts | 267° |
| 2026-05-07 16:51 | 48.36083 | 12.00955 | 7441 ft | 162 kts | 263° |
| 2026-05-07 16:51 | 48.35924 | 11.99239 | 6970 ft | 170 kts | 262° |
| 2026-05-07 16:51 | 48.35731 | 11.97514 | 6613 ft | 166 kts | 259° |
| 2026-05-07 16:52 | 48.35493 | 11.95754 | 6015 ft | 175 kts | 259° |
| 2026-05-07 16:52 | 48.35254 | 11.93927 | 5410 ft | 182 kts | 259° |
| 2026-05-07 16:52 | 48.34988 | 11.92052 | 4900 ft | 182 kts | 259° |
| 2026-05-07 16:52 | 48.34786 | 11.90102 | 4023 ft | 198 kts | 266° |
| 2026-05-07 16:53 | 48.34714 | 11.87987 | 3236 ft | 205 kts | 269° |
| 2026-05-07 16:53 | 48.34659 | 11.85830 | 2558 ft | 204 kts | 269° |
| 2026-05-07 16:53 | 48.34619 | 11.83744 | 2093 ft | 195 kts | 269° |
| 2026-05-07 16:53 | 48.34553 | 11.81744 | 1706 ft | 186 kts | 266° |
| 2026-05-07 16:54 | 48.34431 | 11.79883 | 1502 ft | 168 kts | 264° |
| 2026-05-07 16:54 | 48.34311 | 11.78299 | 1484 ft | 135 kts | 264° |
| 2026-05-07 16:54 | 48.34230 | 11.77163 | 1484 ft | 87 kts | 264° |
| 2026-05-07 16:54 | 48.34195 | 11.76519 | 1484 ft | 39 kts | 273° |
| 2026-05-07 16:55 | 48.34259 | 11.76191 | 1471 ft | 30 kts | 294° |
| 2026-05-07 16:55 | 48.34327 | 11.75964 | 1484 ft | 0 kts | 293° |
| 2026-05-07 16:55 | 48.34329 | 11.75957 | 1484 ft | 2 kts | 293° |
| 2026-05-07 16:55 | 48.34338 | 11.75927 | 1477 ft | 5 kts | 294° |
| 2026-05-07 16:56 | 48.34364 | 11.75850 | 1480 ft | 11 kts | 303° |
| 2026-05-07 16:56 | 48.34438 | 11.75783 | 1471 ft | 14 kts | 347° |
| 2026-05-07 16:56 | 48.34519 | 11.76015 | 1484 ft | 17 kts | 83° |
| 2026-05-07 16:57 | 48.34535 | 11.76222 | 1484 ft | 23 kts | 84° |
| 2026-05-07 16:57 | 48.34555 | 11.76476 | 1484 ft | 25 kts | 83° |
| 2026-05-07 16:57 | 48.34575 | 11.76738 | 1484 ft | 25 kts | 84° |
| 2026-05-07 16:57 | 48.34595 | 11.77006 | 1476 ft | 26 kts | 83° |
| 2026-05-07 16:58 | 48.34615 | 11.77275 | 1475 ft | 26 kts | 84° |
| 2026-05-07 16:58 | 48.34637 | 11.77552 | 1479 ft | 27 kts | 83° |
| 2026-05-07 16:58 | 48.34658 | 11.77834 | 1478 ft | 27 kts | 83° |
| 2026-05-07 16:58 | 48.34680 | 11.78119 | 1484 ft | 28 kts | 83° |
| 2026-05-07 16:59 | 48.34703 | 11.78408 | 1481 ft | 28 kts | 83° |
| 2026-05-07 16:59 | 48.34725 | 11.78701 | 1484 ft | 28 kts | 83° |
| 2026-05-07 16:59 | 48.34748 | 11.78990 | 1474 ft | 26 kts | 83° |
| 2026-05-07 16:59 | 48.34768 | 11.79258 | 1474 ft | 23 kts | 84° |
| 2026-05-07 17:00 | 48.34783 | 11.79462 | 1472 ft | 17 kts | 83° |
| 2026-05-07 17:00 | 48.34835 | 11.79557 | 1484 ft | 0 kts | 9° |
| 2026-05-07 17:01 | 48.34836 | 11.79557 | 1484 ft | 0 kts | 9° |
| 2026-05-07 17:01 | 48.34844 | 11.79558 | 1475 ft | 2 kts | 4° |
| 2026-05-07 17:01 | 48.34863 | 11.79557 | 1484 ft | 4 kts | 357° |
| 2026-05-07 17:02 | 48.34887 | 11.79553 | 1476 ft | 3 kts | 352° |
| 2026-05-07 17:02 | 48.34888 | 11.79553 | 1484 ft | 0 kts | 352° |
| 2026-05-07 17:02 | 48.34906 | 11.79549 | 1480 ft | 5 kts | 352° |
| 2026-05-07 17:03 | 48.34946 | 11.79541 | 1484 ft | 7 kts | 352° |
| 2026-05-07 17:03 | 48.35003 | 11.79532 | 1476 ft | 9 kts | 356° |
| 2026-05-07 17:03 | 48.35058 | 11.79577 | 1475 ft | 10 kts | 65° |
| 2026-05-07 17:03 | 48.35071 | 11.79687 | 1473 ft | 11 kts | 84° |
| 2026-05-07 17:04 | 48.35079 | 11.79812 | 1478 ft | 13 kts | 84° |
| 2026-05-07 17:04 | 48.35060 | 11.79932 | 1476 ft | 13 kts | 152° |
| 2026-05-07 17:04 | 48.35001 | 11.79996 | 1480 ft | 11 kts | 102° |
| 2026-05-07 17:04 | 48.35038 | 11.80048 | 1484 ft | 0 kts | 351° |
| 2026-05-07 17:06 | 48.35036 | 11.80044 | 1484 ft | 0 kts | 353° |